Hattiesburg Laurel Regional Airport
KPIB : now visible

Airfield :











YOU CAN JOIN US ON...

 
LOGIN :

Register | Disclaimer

   EN    FR    IT 

 









Legend :    VFR   Marginal VFR   IFR   Intensive IFR   Very Intensive IFR
Visi :
Ceiling :
>= 8 km
>= 3000ft
5 to 8 km
1000 to 3000 ft
1500m to 5 km
500 to 1000 ft
800 to 1500m
200 to 500 ft
< 800m
< 200 ft
Symbols :   Thunderstorms  Fog  Heavy snow  Heavy precipitations  Wind > 20 kt






- Airport Elevation : 298 ft
- IATA code : PIB


KPIB - Hattiesburg Laurel Regional

CURRENT METAR :
  • 110256Z AUTO 00000KT 10SM SCT024 21/21 A3004 RMK AO2 SLP171 6//// T02110211 53012 PNO $

EXPIRED METARs :
  • 110246Z AUTO 00000KT 10SM SCT024 21/21 A3004 RMK AO2 PNO $
  • 110237Z AUTO 00000KT 10SM BKN024 22/21 A3004 RMK AO2 PNO $
  • 110156Z AUTO 00000KT 10SM FEW024 OVC041 22/22 A3002 RMK AO2 SLP164 T02170217 PNO $
  • 110105Z AUTO 11003KT 10SM SCT027 BKN034 22/22 A3001 RMK AO2 PNO $
  • 110056Z AUTO 18004KT 10SM BKN027 BKN032 22/22 A3001 RMK AO2 SLP159 T02220217 PNO $
  • 110029Z AUTO 12004KT 10SM BKN025 23/22 A3001 RMK AO2 PNO $

TAF KPIB
Valid from the 11 at 00:00 until the 12 at 00:00 UTC


102340Z 1100/1124 17005KT P6SM VCSH SCT040 BKN060
FM110400 07003KT P6SM OVC007
FM110900 07003KT 2SM BR OVC003
FM111400 10005KT 6SM BR BKN006
FM111700 14006KT P6SM -SHRA VCTS BKN015CB
FM112000 12007KT 2SM -TSRA BR OVC015CB
FM112200 13006KT P6SM -RA OVC025
KZHU FIR / North America



MET'MAP, your aeronautical weather chart ! - Copyright ORBIFLY December 2007 - Disclaimer

ORBIFLY MET'MAP TEAM :

Programming & Development : Alexandra Zaïnal
Concept & original design : Baudouin d'Aumeries
Assistance for programming : Marc-Olivier Méhu
Technical & hardware support : Manuel Goepfert

Contact : metmap@orbifly.com




SOURCES & CREDITS :

   NOAA       Earth
Advisory